Terminal Aerodrome Forecast
Issued by NWS

Home | Current Version | Previous Version | Text Only | Print | Product List | Glossary On
Versions: 1 2 3 4 5 6 7 8 9 10 11 12 13 14 15 16 17 18 19 20 21 22
000
FTAK31 PAFA 252023 AAA
TAFAQT
TAF AMD
PAQT 252023Z 2520/2618 25026G35KT 1/4SM SN FZFG OVC005
     FM260000 25025G35KT 1/2SM BLSN OVC010
     FM260900 26015G25KT 1 1/2SM BLSN OVC010=

USA.gov is the U.S. government's official web portal to all federal, state and local government web resources and services.